createdAt,value
2023-02-22T00:01:42.813Z,51.20
2023-02-22T00:04:10.824Z,45.27
2023-02-22T00:06:37.232Z,43.40
2023-02-22T00:09:03.867Z,54.27
2023-02-22T00:11:31.601Z,53.90
2023-02-22T00:13:58.315Z,55.00
2023-02-22T00:16:26.032Z,55.50
2023-02-22T00:18:53.241Z,60.20
2023-02-22T00:21:20.700Z,49.27
2023-02-22T00:23:48.144Z,57.70
2023-02-22T00:26:21.525Z,49.73
2023-02-22T00:28:50.926Z,48.33
2023-02-22T00:31:18.067Z,51.00
2023-02-22T00:33:44.791Z,46.80
2023-02-22T00:36:13.211Z,47.83
2023-02-22T00:38:40.477Z,49.77
2023-02-22T00:41:07.216Z,45.90
2023-02-22T00:43:34.202Z,40.23
2023-02-22T00:46:00.796Z,40.23
2023-02-22T00:48:28.302Z,42.03
2023-02-22T00:50:57.904Z,50.27
2023-02-22T00:53:25.316Z,45.07
2023-02-22T00:55:52.729Z,45.10
2023-02-22T00:58:19.221Z,46.77
2023-02-22T01:00:46.852Z,47.60
2023-02-22T01:03:15.298Z,44.03
2023-02-22T01:05:42.942Z,44.40
2023-02-22T01:08:12.057Z,43.67
2023-02-22T01:10:40.057Z,55.20
2023-02-22T01:13:09.174Z,47.77
2023-02-22T01:15:37.483Z,48.80
2023-02-22T01:18:05.227Z,49.60
2023-02-22T01:20:32.451Z,50.33
2023-02-22T01:23:01.103Z,46.20
2023-02-22T01:25:30.728Z,41.70
2023-02-22T01:27:58.845Z,44.67
2023-02-22T01:30:28.527Z,46.20
2023-02-22T01:32:55.725Z,43.43
2023-02-22T01:35:25.721Z,48.17
2023-02-22T01:37:52.165Z,56.40
2023-02-22T01:40:25.843Z,41.17
2023-02-22T01:42:57.647Z,39.97
2023-02-22T01:45:30.364Z,43.37
2023-02-22T01:48:24.908Z,46.80
2023-02-22T01:51:13.890Z,41.80
2023-02-22T01:53:43.209Z,49.40
2023-02-22T01:56:10.304Z,45.33
2023-02-22T01:58:39.981Z,45.67
2023-02-22T02:01:07.190Z,41.87
2023-02-22T02:03:37.123Z,40.33
2023-02-22T02:06:08.021Z,43.20
2023-02-22T02:08:51.806Z,41.30
2023-02-22T02:11:21.998Z,40.63
2023-02-22T02:13:57.865Z,39.60
2023-02-22T02:16:35.730Z,44.40
2023-02-22T02:19:03.480Z,37.23
2023-02-22T02:21:58.384Z,35.17
2023-02-22T02:24:50.455Z,29.23
2023-02-22T02:27:47.781Z,35.17
2023-02-22T02:30:42.190Z,38.00
2023-02-22T02:33:29.419Z,43.73
2023-02-22T02:36:12.707Z,37.43
2023-02-22T02:38:45.741Z,35.20
2023-02-22T02:41:21.662Z,35.00
2023-02-22T02:44:15.792Z,33.07
2023-02-22T02:46:56.212Z,32.43
2023-02-22T02:49:29.061Z,29.63
2023-02-22T02:51:57.038Z,37.00
2023-02-22T02:54:24.848Z,33.53
2023-02-22T02:56:51.295Z,39.20
2023-02-22T02:59:32.681Z,40.27
2023-02-22T03:02:02.210Z,38.37
2023-02-22T03:04:48.911Z,37.67
2023-02-22T03:07:27.098Z,31.67
2023-02-22T03:10:38.567Z,33.60
2023-02-22T03:13:24.767Z,34.50
2023-02-22T03:16:21.368Z,34.70
2023-02-22T03:19:07.204Z,30.23
2023-02-22T03:21:50.235Z,36.93
2023-02-22T03:24:52.894Z,39.07
2023-02-22T03:27:35.117Z,36.50
2023-02-22T03:30:07.299Z,36.87
2023-02-22T03:32:39.247Z,35.20
2023-02-22T03:35:10.010Z,31.43
2023-02-22T03:37:41.180Z,34.10
2023-02-22T03:40:16.684Z,40.73
2023-02-22T03:42:48.812Z,36.33
2023-02-22T03:45:17.694Z,32.27
2023-02-22T03:47:58.516Z,32.43
2023-02-22T03:50:33.004Z,37.57
2023-02-22T03:52:59.472Z,38.20
2023-02-22T03:55:28.742Z,34.23
2023-02-22T03:57:59.055Z,33.60
2023-02-22T04:00:29.974Z,33.40
2023-02-22T04:02:56.779Z,32.33
2023-02-22T04:05:25.063Z,31.70
2023-02-22T04:07:57.060Z,27.20
2023-02-22T04:10:24.959Z,27.90
2023-02-22T04:12:51.941Z,25.93
2023-02-22T04:15:22.219Z,29.13
2023-02-22T04:17:48.764Z,30.67
2023-02-22T04:20:15.532Z,33.00
2023-02-22T04:22:41.925Z,30.20
2023-02-22T04:25:08.787Z,30.60
2023-02-22T04:27:35.172Z,30.23
2023-02-22T04:30:01.644Z,27.03
2023-02-22T04:32:28.050Z,27.80
2023-02-22T04:34:54.477Z,30.60
2023-02-22T04:37:20.882Z,25.73
2023-02-22T04:39:47.340Z,26.20
2023-02-22T04:42:13.735Z,27.97
2023-02-22T04:44:40.139Z,28.33
2023-02-22T04:47:06.517Z,26.57
2023-02-22T04:49:32.929Z,25.97
2023-02-22T04:51:59.298Z,26.43
2023-02-22T04:54:25.696Z,24.70
2023-02-22T04:56:52.178Z,26.33
2023-02-22T04:59:19.733Z,24.80
2023-02-22T05:01:46.647Z,30.77
2023-02-22T05:04:13.150Z,27.57
2023-02-22T05:06:39.578Z,27.00
2023-02-22T05:09:06.116Z,29.03
2023-02-22T05:11:32.574Z,23.57
2023-02-22T05:13:58.991Z,26.60
2023-02-22T05:16:26.406Z,25.30
2023-02-22T05:18:52.826Z,32.70
2023-02-22T05:21:19.400Z,27.33
2023-02-22T05:23:45.889Z,25.13
2023-02-22T05:26:12.330Z,26.33
2023-02-22T05:28:39.022Z,28.90
2023-02-22T05:31:07.282Z,22.97
2023-02-22T05:33:33.762Z,22.13
2023-02-22T05:36:00.167Z,22.13
2023-02-22T05:38:26.614Z,20.47
2023-02-22T05:40:53.102Z,29.40
2023-02-22T05:43:19.503Z,26.40
2023-02-22T05:45:46.001Z,20.97
2023-02-22T05:48:12.932Z,22.03
2023-02-22T05:50:39.597Z,22.20
2023-02-22T05:53:06.127Z,21.67
2023-02-22T05:55:33.065Z,24.43
2023-02-22T05:57:59.712Z,21.73
2023-02-22T06:00:29.585Z,21.80
2023-02-22T06:03:04.788Z,24.10
2023-02-22T06:05:31.627Z,22.53
2023-02-22T06:07:59.473Z,17.87
2023-02-22T06:10:26.740Z,19.20
2023-02-22T06:12:54.162Z,20.30
2023-02-22T06:15:22.877Z,18.00
2023-02-22T06:17:49.621Z,18.13
2023-02-22T06:20:19.975Z,17.97
2023-02-22T06:22:51.001Z,18.37
2023-02-22T06:25:21.327Z,18.33
2023-02-22T06:27:47.975Z,17.73
2023-02-22T06:30:23.690Z,19.43
2023-02-22T06:32:50.436Z,18.60
2023-02-22T06:35:18.000Z,19.97
2023-02-22T06:37:44.661Z,21.00
2023-02-22T06:40:12.472Z,25.70
2023-02-22T06:42:39.758Z,19.03
2023-02-22T06:45:07.400Z,17.30
2023-02-22T06:47:33.903Z,18.60
2023-02-22T06:50:00.990Z,19.10
2023-02-22T06:52:27.487Z,19.10
2023-02-22T06:54:53.931Z,19.93
2023-02-22T06:57:21.508Z,23.83
2023-02-22T06:59:47.975Z,22.77
2023-02-22T07:02:14.740Z,16.60
2023-02-22T07:04:43.399Z,15.80
2023-02-22T07:07:10.798Z,20.37
2023-02-22T07:09:37.296Z,21.60
2023-02-22T07:12:05.579Z,20.70
2023-02-22T07:14:31.946Z,17.30
2023-02-22T07:16:58.363Z,23.70
2023-02-22T07:19:24.737Z,21.93
2023-02-22T07:21:55.315Z,26.50
2023-02-22T07:24:21.793Z,24.53
2023-02-22T07:26:48.182Z,22.77
2023-02-22T07:29:14.588Z,23.70
2023-02-22T07:31:41.045Z,24.63
2023-02-22T07:34:07.452Z,29.63
2023-02-22T07:36:33.910Z,22.80
2023-02-22T07:39:00.310Z,27.97
2023-02-22T07:41:26.721Z,23.97
2023-02-22T07:43:53.108Z,25.73
2023-02-22T07:46:19.598Z,27.77
2023-02-22T07:48:46.014Z,28.77
2023-02-22T07:51:15.866Z,23.13
2023-02-22T07:53:42.432Z,22.80
2023-02-22T07:56:08.904Z,24.13
2023-02-22T07:58:35.705Z,26.60
2023-02-22T08:01:02.409Z,24.37
2023-02-22T08:03:31.820Z,26.67
2023-02-22T08:06:00.442Z,22.20
2023-02-22T08:08:27.961Z,26.23
2023-02-22T08:10:54.901Z,29.10
2023-02-22T08:13:22.634Z,26.30
2023-02-22T08:15:51.934Z,33.37
2023-02-22T08:18:19.362Z,28.40
2023-02-22T08:20:48.082Z,29.20
2023-02-22T08:23:16.577Z,29.83
2023-02-22T08:25:42.977Z,32.47
2023-02-22T08:28:12.031Z,29.03
2023-02-22T08:30:40.617Z,30.00
2023-02-22T08:33:07.471Z,24.00
2023-02-22T08:35:34.212Z,29.33
2023-02-22T08:38:06.017Z,31.20
2023-02-22T08:40:37.175Z,29.37
2023-02-22T08:43:04.487Z,26.50
2023-02-22T08:45:31.011Z,24.13
2023-02-22T08:47:59.391Z,22.70
2023-02-22T08:50:33.462Z,24.80
2023-02-22T08:53:01.579Z,26.83
2023-02-22T08:55:32.147Z,25.60
2023-02-22T08:58:03.179Z,23.73
2023-02-22T09:00:33.087Z,19.57
2023-02-22T09:03:03.542Z,23.27
2023-02-22T09:05:31.569Z,24.30
2023-02-22T09:07:58.571Z,22.20
2023-02-22T09:10:28.150Z,22.90
2023-02-22T09:12:58.306Z,23.83
2023-02-22T09:15:25.581Z,25.57
2023-02-22T09:17:53.298Z,23.43
2023-02-22T09:20:22.104Z,23.63
2023-02-22T09:22:49.316Z,25.27
2023-02-22T09:25:17.397Z,25.83
2023-02-22T09:27:45.084Z,26.83
2023-02-22T09:30:24.834Z,22.40
2023-02-22T09:32:53.686Z,23.57
2023-02-22T09:35:26.819Z,27.70
2023-02-22T09:37:58.787Z,25.73
2023-02-22T09:40:30.178Z,24.20
2023-02-22T09:43:10.678Z,25.70
2023-02-22T09:45:48.224Z,23.87
2023-02-22T09:48:22.108Z,24.70
2023-02-22T09:50:51.507Z,25.60
2023-02-22T09:53:29.692Z,23.87
2023-02-22T09:56:10.990Z,25.87
2023-02-22T09:58:45.793Z,25.37
2023-02-22T10:01:39.100Z,25.50
2023-02-22T10:04:52.735Z,22.23
2023-02-22T10:07:34.541Z,21.87
2023-02-22T10:10:06.310Z,20.50
2023-02-22T10:12:48.061Z,22.90
2023-02-22T10:15:23.321Z,25.60
2023-02-22T10:18:17.311Z,23.20
2023-02-22T10:21:38.306Z,23.63
2023-02-22T10:24:39.657Z,23.93
2023-02-22T10:27:13.339Z,24.67
2023-02-22T10:29:43.806Z,25.83
2023-02-22T10:32:25.458Z,25.80
2023-02-22T10:34:54.713Z,23.10
2023-02-22T10:37:31.532Z,23.67
2023-02-22T10:40:11.606Z,24.43
2023-02-22T10:42:38.048Z,27.73
2023-02-22T10:45:06.133Z,25.80
2023-02-22T10:47:33.887Z,29.90
2023-02-22T10:50:01.483Z,28.73
2023-02-22T10:52:31.103Z,28.50
2023-02-22T10:55:13.769Z,24.63
2023-02-22T10:57:44.240Z,30.13
2023-02-22T11:00:15.459Z,30.93
2023-02-22T11:02:54.631Z,30.10
2023-02-22T11:05:36.890Z,28.50
2023-02-22T11:08:21.756Z,26.63
2023-02-22T11:10:49.850Z,30.70
2023-02-22T11:13:30.024Z,30.10
2023-02-22T11:16:16.345Z,26.93
2023-02-22T11:18:43.089Z,28.40
2023-02-22T11:21:12.331Z,28.97
2023-02-22T11:23:44.392Z,28.93
2023-02-22T11:26:20.698Z,28.83
2023-02-22T11:28:50.833Z,28.47
2023-02-22T11:31:23.979Z,27.47
2023-02-22T11:34:27.156Z,28.40
2023-02-22T11:36:53.592Z,25.13
2023-02-22T11:39:29.600Z,25.03
2023-02-22T11:41:56.728Z,23.60
2023-02-22T11:44:24.975Z,29.07
2023-02-22T11:46:55.641Z,24.30
2023-02-22T11:49:33.240Z,23.53
2023-02-22T11:52:09.232Z,28.27
2023-02-22T11:55:00.896Z,26.47
2023-02-22T11:58:13.571Z,27.17
2023-02-22T12:00:58.693Z,25.67
2023-02-22T12:03:38.199Z,32.83
2023-02-22T12:06:29.222Z,25.63
2023-02-22T12:09:07.452Z,26.30
2023-02-22T12:11:45.348Z,29.10
2023-02-22T12:14:34.420Z,27.43
2023-02-22T12:17:09.714Z,26.23
2023-02-22T12:19:49.049Z,24.47
2023-02-22T12:22:21.619Z,26.37
2023-02-22T12:25:12.202Z,24.77
2023-02-22T12:27:49.204Z,25.80
2023-02-22T12:30:24.081Z,25.90
2023-02-22T12:32:53.808Z,25.17
2023-02-22T12:35:35.182Z,28.87
2023-02-22T12:38:23.400Z,25.47
2023-02-22T12:41:13.910Z,24.97
2023-02-22T12:43:51.724Z,26.53
2023-02-22T12:46:23.119Z,24.77
2023-02-22T12:49:00.839Z,25.27
2023-02-22T12:51:31.110Z,23.73
2023-02-22T12:54:35.108Z,25.40
2023-02-22T12:57:46.574Z,22.97
2023-02-22T13:00:26.263Z,22.23
2023-02-22T13:03:01.157Z,20.90
2023-02-22T13:05:34.632Z,22.80
2023-02-22T13:08:13.471Z,26.03
2023-02-22T13:10:58.709Z,24.33
2023-02-22T13:13:36.515Z,20.73
2023-02-22T13:16:24.413Z,21.20
2023-02-22T13:19:03.694Z,25.87
2023-02-22T13:21:45.407Z,26.33
2023-02-22T13:24:44.109Z,25.93
2023-02-22T13:27:16.901Z,26.83
2023-02-22T13:29:48.460Z,23.77
2023-02-22T13:32:45.238Z,22.87
2023-02-22T13:35:38.232Z,22.83
2023-02-22T13:38:23.276Z,20.53
2023-02-22T13:41:15.227Z,20.83
2023-02-22T13:44:06.598Z,17.90
2023-02-22T13:46:40.688Z,21.53
2023-02-22T13:49:30.129Z,22.20
2023-02-22T13:52:01.409Z,26.73
2023-02-22T13:54:44.574Z,22.47
2023-02-22T13:57:33.391Z,25.20
2023-02-22T14:00:14.783Z,23.97
2023-02-22T14:03:01.572Z,23.50
2023-02-22T14:05:43.276Z,23.20
2023-02-22T14:08:21.822Z,22.70
2023-02-22T14:10:51.177Z,22.27
2023-02-22T14:13:26.623Z,21.40
2023-02-22T14:16:05.164Z,18.80
2023-02-22T14:18:43.669Z,22.13
2023-02-22T14:21:20.316Z,21.50
2023-02-22T14:23:53.916Z,20.37
2023-02-22T14:26:28.329Z,30.60
2023-02-22T14:29:02.805Z,17.10
2023-02-22T14:31:37.348Z,19.43
2023-02-22T14:34:04.158Z,19.27
2023-02-22T14:36:37.968Z,18.30
2023-02-22T14:39:16.225Z,18.50
2023-02-22T14:41:50.014Z,19.13
2023-02-22T14:44:24.179Z,18.60
2023-02-22T14:46:53.979Z,20.80
2023-02-22T14:49:24.917Z,17.90
2023-02-22T14:51:59.619Z,19.30
2023-02-22T14:54:31.760Z,20.83
2023-02-22T14:57:24.361Z,21.27
2023-02-22T15:00:08.203Z,19.40
2023-02-22T15:02:38.875Z,16.80
2023-02-22T15:05:05.532Z,20.93
2023-02-22T15:07:35.747Z,20.13
2023-02-22T15:10:25.912Z,21.90
2023-02-22T15:13:10.983Z,16.97
2023-02-22T15:15:46.951Z,23.00
2023-02-22T15:18:40.641Z,20.50
2023-02-22T15:21:13.108Z,17.77
2023-02-22T15:23:49.000Z,21.77
2023-02-22T15:26:42.492Z,21.20
2023-02-22T15:29:19.260Z,20.20
2023-02-22T15:31:48.250Z,21.63
2023-02-22T15:34:15.050Z,20.70
2023-02-22T15:36:44.158Z,23.00
2023-02-22T15:39:34.170Z,26.53
2023-02-22T15:42:06.213Z,24.90
2023-02-22T15:44:41.463Z,22.77
2023-02-22T15:47:20.869Z,20.53
2023-02-22T15:50:17.512Z,20.73
2023-02-22T15:52:53.055Z,17.87
2023-02-22T15:55:25.526Z,22.20
2023-02-22T15:57:52.727Z,19.57
2023-02-22T16:00:33.282Z,18.60
2023-02-22T16:03:00.226Z,17.30
2023-02-22T16:05:37.090Z,18.23
2023-02-22T16:08:04.020Z,24.40
2023-02-22T16:10:33.498Z,17.87
2023-02-22T16:13:32.507Z,16.90
2023-02-22T16:16:03.974Z,22.30
2023-02-22T16:18:36.473Z,15.53
2023-02-22T16:21:13.871Z,17.73
2023-02-22T16:23:51.651Z,18.03
2023-02-22T16:26:30.263Z,16.70
2023-02-22T16:29:05.979Z,17.37
2023-02-22T16:31:37.640Z,20.17
2023-02-22T16:34:06.493Z,21.20
2023-02-22T16:36:45.812Z,16.30
2023-02-22T16:39:22.301Z,17.60
2023-02-22T16:41:50.606Z,17.47
2023-02-22T16:44:17.711Z,21.70
2023-02-22T16:46:44.352Z,21.20
2023-02-22T16:49:12.450Z,19.77
2023-02-22T16:51:49.316Z,16.47
2023-02-22T16:54:25.262Z,18.23
2023-02-22T16:56:54.496Z,16.37
2023-02-22T16:59:21.082Z,16.27
2023-02-22T17:01:47.503Z,19.73
2023-02-22T17:04:28.664Z,19.10
2023-02-22T17:06:55.070Z,17.13
2023-02-22T17:09:21.476Z,24.10
2023-02-22T17:11:51.361Z,20.67
2023-02-22T17:14:23.205Z,16.53
2023-02-22T17:16:52.666Z,21.10
2023-02-22T17:19:22.469Z,26.47
2023-02-22T17:21:50.115Z,33.90
2023-02-22T17:24:20.051Z,25.80
2023-02-22T17:26:46.489Z,20.73
2023-02-22T17:29:13.751Z,22.67
2023-02-22T17:31:40.278Z,20.87
2023-02-22T17:34:07.225Z,16.43
2023-02-22T17:36:36.343Z,18.40
2023-02-22T17:39:04.537Z,31.10
2023-02-22T17:41:31.444Z,24.03
2023-02-22T17:44:00.790Z,27.70
2023-02-22T17:46:27.334Z,19.63
2023-02-22T17:48:54.116Z,19.50
2023-02-22T17:51:22.707Z,22.50
2023-02-22T17:53:49.131Z,17.90
2023-02-22T17:56:21.119Z,14.97
2023-02-22T17:58:53.142Z,20.17
2023-02-22T18:01:28.349Z,19.37
2023-02-22T18:03:58.457Z,17.10
2023-02-22T18:06:27.173Z,14.83
2023-02-22T18:08:56.582Z,20.13
2023-02-22T18:11:26.373Z,15.70
2023-02-22T18:13:55.410Z,16.20
2023-02-22T18:16:22.581Z,18.80
2023-02-22T18:18:49.737Z,16.70
2023-02-22T18:21:16.288Z,15.43
2023-02-22T18:23:44.748Z,18.17
2023-02-22T18:26:16.964Z,16.00
2023-02-22T18:28:43.674Z,15.27
2023-02-22T18:31:15.116Z,10.93
2023-02-22T18:33:49.119Z,12.73
2023-02-22T18:36:16.997Z,11.50
2023-02-22T18:38:44.628Z,9.90
2023-02-22T18:41:16.126Z,12.70
2023-02-22T18:43:43.478Z,13.97
2023-02-22T18:46:09.831Z,13.33
2023-02-22T18:48:36.404Z,12.90
2023-02-22T18:51:05.819Z,15.17
2023-02-22T18:53:32.706Z,17.20
2023-02-22T18:56:06.990Z,13.17
2023-02-22T18:58:33.445Z,17.70
2023-02-22T19:01:01.235Z,17.40
2023-02-22T19:03:28.654Z,13.93
2023-02-22T19:06:00.285Z,15.10
2023-02-22T19:08:26.730Z,17.87
2023-02-22T19:10:53.114Z,13.07
2023-02-22T19:13:20.992Z,14.13
2023-02-22T19:15:47.445Z,14.73
2023-02-22T19:18:13.927Z,15.67
2023-02-22T19:23:10.293Z,13.63
2023-02-22T19:25:41.018Z,15.93
2023-02-22T19:28:07.434Z,15.77
2023-02-22T19:30:33.886Z,14.63
2023-02-22T19:33:02.556Z,20.93
2023-02-22T19:35:29.837Z,15.40
2023-02-22T19:37:56.247Z,15.40
2023-02-22T19:40:23.217Z,22.57
2023-02-22T19:42:54.630Z,15.60
2023-02-22T19:45:23.385Z,17.43
2023-02-22T19:47:56.236Z,13.10
2023-02-22T19:50:22.998Z,16.87
2023-02-22T19:52:49.492Z,17.73
2023-02-22T19:55:15.939Z,14.93
2023-02-22T19:57:49.826Z,17.57
2023-02-22T20:00:24.291Z,16.67
2023-02-22T20:03:05.462Z,16.73
2023-02-22T20:05:33.720Z,16.30
2023-02-22T20:08:00.185Z,18.43
2023-02-22T20:10:26.695Z,16.73
2023-02-22T20:12:53.138Z,18.17
2023-02-22T20:15:19.569Z,16.63
2023-02-22T20:17:50.277Z,18.43
2023-02-22T20:20:18.372Z,14.90
2023-02-22T20:22:45.583Z,19.83
2023-02-22T20:25:13.560Z,17.70
2023-02-22T20:27:40.168Z,16.73
2023-02-22T20:30:09.794Z,15.67
2023-02-22T20:32:37.763Z,16.83
2023-02-22T20:35:05.715Z,14.97
2023-02-22T20:37:33.991Z,18.17
2023-02-22T20:40:00.449Z,15.40
2023-02-22T20:42:27.415Z,14.27
2023-02-22T20:44:54.487Z,14.30
2023-02-22T20:47:20.974Z,17.77
2023-02-22T20:49:47.383Z,18.53
2023-02-22T20:52:13.759Z,17.27
2023-02-22T20:54:40.221Z,18.90
2023-02-22T20:57:08.086Z,21.93
2023-02-22T20:59:34.580Z,19.00
2023-02-22T21:02:00.987Z,24.07
2023-02-22T21:04:32.923Z,18.80
2023-02-22T21:07:03.127Z,19.30
2023-02-22T21:09:29.794Z,19.03
2023-02-22T21:11:56.201Z,18.03
2023-02-22T21:14:24.248Z,17.97
2023-02-22T21:16:51.894Z,21.67
2023-02-22T21:19:25.656Z,19.90
2023-02-22T21:21:56.364Z,20.70
2023-02-22T21:24:25.085Z,23.47
2023-02-22T21:26:52.130Z,23.83
2023-02-22T21:29:19.317Z,23.37
2023-02-22T21:31:45.918Z,20.50
2023-02-22T21:34:13.638Z,23.87
2023-02-22T21:36:40.149Z,21.37
2023-02-22T21:39:18.229Z,25.20
2023-02-22T21:41:49.716Z,23.83
2023-02-22T21:44:17.064Z,24.37
2023-02-22T21:46:43.794Z,25.03
2023-02-22T21:49:11.261Z,24.50
2023-02-22T21:51:40.704Z,26.00
2023-02-22T21:54:09.694Z,32.10
2023-02-22T21:56:39.761Z,29.93
2023-02-22T21:59:19.059Z,22.30
2023-02-22T22:01:49.597Z,23.97
2023-02-22T22:04:21.338Z,26.07
2023-02-22T22:06:50.845Z,26.10
2023-02-22T22:09:20.599Z,29.47
2023-02-22T22:11:49.756Z,27.50
2023-02-22T22:14:20.351Z,28.60
2023-02-22T22:16:48.618Z,24.27
2023-02-22T22:19:15.257Z,26.90
2023-02-22T22:21:41.862Z,33.30
2023-02-22T22:24:10.409Z,32.13
2023-02-22T22:26:38.093Z,33.30
2023-02-22T22:29:05.468Z,30.37
2023-02-22T22:31:32.178Z,29.43
2023-02-22T22:33:58.621Z,35.90
2023-02-22T22:36:27.014Z,33.93
2023-02-22T22:38:57.435Z,32.97
2023-02-22T22:41:27.927Z,31.23
2023-02-22T22:43:54.814Z,33.57
2023-02-22T22:46:21.520Z,41.80
2023-02-22T22:48:48.196Z,33.03
2023-02-22T22:51:19.748Z,37.17
2023-02-22T22:53:48.538Z,33.47
2023-02-22T22:56:20.898Z,33.67
2023-02-22T22:58:49.640Z,30.63
2023-02-22T23:01:19.621Z,38.73
2023-02-22T23:03:55.964Z,38.47
2023-02-22T23:06:25.100Z,34.27
2023-02-22T23:09:00.142Z,32.53
2023-02-22T23:11:33.641Z,32.83
2023-02-22T23:14:03.517Z,31.90
2023-02-22T23:16:32.203Z,33.77
2023-02-22T23:18:58.952Z,34.73
2023-02-22T23:21:25.470Z,29.33
2023-02-22T23:23:56.249Z,30.47
2023-02-22T23:26:26.452Z,29.90
2023-02-22T23:28:59.124Z,29.00
2023-02-22T23:31:28.862Z,27.53
2023-02-22T23:33:58.538Z,29.10
2023-02-22T23:36:26.308Z,29.90
2023-02-22T23:38:54.185Z,29.60
2023-02-22T23:41:20.990Z,29.07
2023-02-22T23:43:47.571Z,29.80
2023-02-22T23:46:18.680Z,27.27
2023-02-22T23:48:54.420Z,25.20
2023-02-22T23:51:25.427Z,30.07
2023-02-22T23:53:55.702Z,30.20
2023-02-22T23:56:27.832Z,30.90
2023-02-22T23:58:57.365Z,33.83
